createdAt,value
2023-01-26T00:01:20.150Z,100542.55
2023-01-26T00:03:46.910Z,100542.30
2023-01-26T00:06:15.131Z,100538.79
2023-01-26T00:08:49.451Z,100543.38
2023-01-26T00:11:23.759Z,100540.98
2023-01-26T00:13:50.532Z,100540.50
2023-01-26T00:16:17.162Z,100538.47
2023-01-26T00:18:44.296Z,100540.71
2023-01-26T00:21:13.849Z,100532.23
2023-01-26T00:23:40.468Z,100527.50
2023-01-26T00:26:08.295Z,100522.75
2023-01-26T00:28:36.039Z,100521.00
2023-01-26T00:31:06.937Z,100522.53
2023-01-26T00:33:34.644Z,100517.48
2023-01-26T00:36:01.312Z,100518.73
2023-01-26T00:38:28.164Z,100512.45
2023-01-26T00:40:59.306Z,100516.52
2023-01-26T00:43:26.116Z,100516.84
2023-01-26T00:45:52.749Z,100510.31
2023-01-26T00:48:24.528Z,100510.70
2023-01-26T00:50:52.465Z,100503.96
2023-01-26T00:53:19.203Z,100499.57
2023-01-26T00:55:45.818Z,100499.15
2023-01-26T00:58:12.555Z,100496.46
2023-01-26T01:00:39.445Z,100498.46
2023-01-26T01:03:06.503Z,100499.40
2023-01-26T01:05:33.998Z,100497.96
2023-01-26T04:50:30.404Z,100364.81
2023-01-26T04:52:57.237Z,100362.38
2023-01-26T04:55:26.066Z,100360.71
2023-01-26T04:57:52.843Z,100360.02
2023-01-26T05:00:20.110Z,100356.48
2023-01-26T05:02:47.933Z,100354.05
2023-01-26T05:05:14.840Z,100349.70
2023-01-26T05:07:43.352Z,100348.14
2023-01-26T05:10:12.588Z,100346.95
2023-01-26T05:12:54.581Z,100344.45
2023-01-26T05:15:43.043Z,100344.92
2023-01-26T05:18:36.180Z,100346.64
2023-01-26T05:21:12.290Z,100348.69
2023-01-26T05:23:42.705Z,100348.81
2023-01-26T05:26:21.936Z,100348.39
2023-01-26T05:28:57.072Z,100345.27
2023-01-26T05:31:23.884Z,100340.89
2023-01-26T05:33:50.571Z,100343.11
2023-01-26T05:36:21.690Z,100342.42
2023-01-26T05:38:48.925Z,100340.91
2023-01-26T05:41:22.201Z,100339.44
2023-01-26T05:44:01.012Z,100341.11
2023-01-26T05:46:36.570Z,100342.65
2023-01-26T05:49:03.498Z,100344.91
2023-01-26T05:51:30.189Z,100346.08
2023-01-26T05:53:56.864Z,100347.70
2023-01-26T05:56:25.162Z,100341.75
2023-01-26T05:58:57.504Z,100343.11
2023-01-26T06:01:24.235Z,100342.63
2023-01-26T06:03:55.585Z,100342.49
2023-01-26T06:06:22.818Z,100344.18
2023-01-26T06:08:57.995Z,100343.39
2023-01-26T06:11:33.675Z,100346.77
2023-01-26T06:14:20.756Z,100351.73
2023-01-26T06:16:48.143Z,100355.81
2023-01-26T06:19:17.222Z,100358.20
2023-01-26T06:21:47.520Z,100350.45
2023-01-26T06:24:14.494Z,100351.42
2023-01-26T06:26:41.190Z,100348.83
2023-01-26T06:29:08.984Z,100346.86
2023-01-26T06:31:36.728Z,100346.30
2023-01-26T06:34:05.184Z,100346.92
2023-01-26T06:36:33.360Z,100351.35
2023-01-26T06:39:01.073Z,100352.94
2023-01-26T06:41:28.403Z,100354.91
2023-01-26T06:43:56.530Z,100356.98
2023-01-26T06:46:23.613Z,100357.63
2023-01-26T06:48:52.732Z,100359.61
2023-01-26T06:51:19.524Z,100356.21
2023-01-26T06:53:53.981Z,100352.84
2023-01-26T06:56:41.230Z,100355.70
2023-01-26T06:59:28.751Z,100351.49
2023-01-26T07:02:25.722Z,100347.44
2023-01-26T07:04:52.670Z,100347.39
2023-01-26T07:07:20.125Z,100346.17
2023-01-26T07:10:07.047Z,100350.66
2023-01-26T07:12:43.764Z,100350.63
2023-01-26T07:15:11.289Z,100349.73
2023-01-26T07:17:39.461Z,100353.36
2023-01-26T07:20:06.615Z,100352.49
2023-01-26T07:22:33.323Z,100349.31
2023-01-26T07:25:05.779Z,100345.70
2023-01-26T07:27:34.080Z,100349.59
2023-01-26T07:30:02.001Z,100349.73
2023-01-26T07:32:28.735Z,100349.02
2023-01-26T07:34:55.364Z,100348.29
2023-01-26T07:37:21.899Z,100349.30
2023-01-26T07:39:49.515Z,100347.30
2023-01-26T07:42:16.192Z,100348.10
2023-01-26T07:44:48.410Z,100344.63
2023-01-26T07:47:19.515Z,100342.59
2023-01-26T07:49:46.655Z,100341.20
2023-01-26T07:52:13.368Z,100337.55
2023-01-26T07:54:39.954Z,100338.63
2023-01-26T07:57:07.656Z,100338.07
2023-01-26T07:59:34.643Z,100334.95
2023-01-26T08:02:01.447Z,100334.46
2023-01-26T08:04:29.619Z,100338.98
2023-01-26T08:06:56.413Z,100337.98
2023-01-26T08:09:24.261Z,100335.89
2023-01-26T08:11:51.485Z,100334.91
2023-01-26T08:14:18.045Z,100340.80
2023-01-26T08:16:45.805Z,100346.12
2023-01-26T08:19:12.708Z,100341.25
2023-01-26T08:21:39.413Z,100341.06
2023-01-26T08:24:06.408Z,100341.58
2023-01-26T08:26:33.224Z,100341.67
2023-01-26T08:28:59.926Z,100340.52
2023-01-26T08:31:27.839Z,100343.42
2023-01-26T08:33:55.760Z,100343.23
2023-01-26T08:36:23.010Z,100341.29
2023-01-26T08:38:50.745Z,100335.70
2023-01-26T08:41:17.849Z,100333.66
2023-01-26T08:43:44.593Z,100330.23
2023-01-26T08:46:11.276Z,100326.23
2023-01-26T08:48:38.097Z,100327.60
2023-01-26T08:51:05.590Z,100323.48
2023-01-26T08:53:33.071Z,100324.35
2023-01-26T08:56:05.289Z,100319.53
2023-01-26T08:58:33.135Z,100318.63
2023-01-26T09:01:03.781Z,100317.79
2023-01-26T09:03:30.571Z,100312.27
2023-01-26T09:05:59.766Z,100311.98
2023-01-26T09:08:26.866Z,100311.54
2023-01-26T09:10:53.498Z,100306.27
2023-01-26T09:13:20.091Z,100303.23
2023-01-26T09:16:08.076Z,100304.66
2023-01-26T09:18:35.606Z,100304.38
2023-01-26T09:21:04.833Z,100301.17
2023-01-26T09:23:32.736Z,100302.16
2023-01-26T09:25:59.612Z,100303.39
2023-01-26T09:28:27.105Z,100304.56
2023-01-26T09:30:53.921Z,100301.99
2023-01-26T09:33:22.329Z,100296.92
2023-01-26T09:35:49.461Z,100293.84
2023-01-26T09:38:16.466Z,100292.05
2023-01-26T09:41:06.288Z,100289.52
2023-01-26T09:43:53.491Z,100282.81
2023-01-26T09:46:21.646Z,100283.50
2023-01-26T09:48:54.120Z,100284.27
2023-01-26T09:51:46.546Z,100276.65
2023-01-26T09:54:21.265Z,100276.09
2023-01-26T09:56:48.330Z,100273.36
2023-01-26T09:59:42.612Z,100275.23
2023-01-26T10:02:15.230Z,100274.32
2023-01-26T10:04:42.938Z,100269.95
2023-01-26T10:07:11.140Z,100264.20
2023-01-26T10:09:50.383Z,100259.33
2023-01-26T10:12:23.267Z,100260.58
2023-01-26T10:15:10.086Z,100260.70
2023-01-26T10:17:40.375Z,100264.79
2023-01-26T10:20:42.492Z,100262.15
2023-01-26T10:23:16.098Z,100250.79
2023-01-26T10:25:43.841Z,100248.36
2023-01-26T10:28:19.787Z,100243.14
2023-01-26T10:30:47.505Z,100242.62
2023-01-26T10:33:27.903Z,100233.75
2023-01-26T10:35:55.203Z,100230.20
2023-01-26T10:38:37.316Z,100233.84
2023-01-26T10:41:17.927Z,100229.66
2023-01-26T10:44:02.279Z,100220.50
2023-01-26T10:46:37.465Z,100222.52
2023-01-26T10:49:18.045Z,100220.27
2023-01-26T10:51:46.698Z,100217.73
2023-01-26T10:54:22.638Z,100218.50
2023-01-26T10:56:59.984Z,100217.64
2023-01-26T10:59:45.541Z,100211.48
2023-01-26T11:02:15.388Z,100223.07
2023-01-26T11:05:11.323Z,100216.57
2023-01-26T11:07:40.242Z,100210.38
2023-01-26T11:10:19.527Z,100196.05
2023-01-26T11:12:46.805Z,100197.15
2023-01-26T11:15:16.558Z,100193.03
2023-01-26T13:33:56.811Z,100137.11
2023-01-26T13:36:23.679Z,100133.79
2023-01-26T13:39:16.500Z,100137.64
2023-01-26T13:41:47.055Z,100136.55
2023-01-26T13:44:17.155Z,100135.94
2023-01-26T13:47:01.517Z,100137.58
2023-01-26T13:49:38.330Z,100130.55
2023-01-26T13:52:31.516Z,100130.98
2023-01-26T13:54:58.491Z,100126.73
2023-01-26T13:57:29.300Z,100130.15
2023-01-26T14:00:00.515Z,100131.07
2023-01-26T14:02:28.405Z,100130.59
2023-01-26T14:04:57.385Z,100130.25
2023-01-26T14:07:42.160Z,100133.23
2023-01-26T14:10:16.277Z,100128.65
2023-01-26T14:12:46.765Z,100126.20
2023-01-26T14:15:25.603Z,100127.09
2023-01-26T14:17:58.015Z,100123.54
2023-01-26T14:20:32.937Z,100123.11
2023-01-26T14:23:14.408Z,100118.07
2023-01-26T14:25:41.999Z,100109.55
2023-01-26T14:28:15.863Z,100107.11
2023-01-26T14:30:42.556Z,100101.14
2023-01-26T14:33:13.520Z,100098.64
2023-01-26T14:35:41.187Z,100106.73
2023-01-26T14:38:11.367Z,100109.73
2023-01-26T14:40:54.490Z,100107.16
2023-01-26T14:43:21.436Z,100112.09
2023-01-26T14:45:54.369Z,100110.94
2023-01-26T14:48:23.144Z,100108.45
2023-01-26T14:50:49.733Z,100108.05
2023-01-26T14:53:21.074Z,100105.12
2023-01-26T14:55:48.648Z,100104.16
2023-01-26T14:58:23.936Z,100100.09
2023-01-26T15:00:50.869Z,100098.13
2023-01-26T15:03:25.429Z,100095.33
2023-01-26T15:06:14.728Z,100094.31
2023-01-26T15:08:42.083Z,100094.17
2023-01-26T15:11:27.832Z,100093.52
2023-01-26T15:13:55.193Z,100094.58
2023-01-26T15:16:25.768Z,100085.38
2023-01-26T15:18:59.961Z,100080.99
2023-01-26T15:21:34.006Z,100084.48
2023-01-26T15:24:00.884Z,100091.27
2023-01-26T15:26:32.320Z,100099.63
2023-01-26T15:29:00.506Z,100100.23
2023-01-26T15:31:37.373Z,100098.34
2023-01-26T15:34:04.824Z,100103.02
2023-01-26T15:36:35.280Z,100100.09
2023-01-26T15:39:03.828Z,100094.03
2023-01-26T15:41:30.868Z,100095.66
2023-01-26T15:43:57.713Z,100100.05
2023-01-26T15:46:25.092Z,100098.48
2023-01-26T15:48:52.210Z,100105.03
2023-01-26T15:51:18.996Z,100094.39
2023-01-26T15:53:45.601Z,100094.38
2023-01-26T15:56:13.063Z,100096.59
2023-01-26T15:58:40.253Z,100094.42
2023-01-26T16:01:08.268Z,100095.75
2023-01-26T16:03:35.983Z,100095.68
2023-01-26T16:06:02.669Z,100095.48
2023-01-26T16:08:29.534Z,100096.11
2023-01-26T16:10:56.295Z,100095.73
2023-01-26T16:13:23.076Z,100097.10
2023-01-26T16:15:53.216Z,100096.75
2023-01-26T16:18:20.001Z,100101.44
2023-01-26T16:20:48.196Z,100092.40
2023-01-26T16:23:20.924Z,100087.84
2023-01-26T16:25:50.276Z,100094.76
2023-01-26T16:28:18.262Z,100090.02
2023-01-26T16:30:45.911Z,100083.02
2023-01-26T16:33:17.504Z,100084.80
2023-01-26T16:35:44.779Z,100085.49
2023-01-26T16:38:12.760Z,100083.55
2023-01-26T16:40:40.307Z,100090.73
2023-01-26T16:43:14.132Z,100092.38
2023-01-26T16:45:40.897Z,100090.05
2023-01-26T16:48:14.570Z,100091.34
2023-01-26T16:50:42.093Z,100088.46
2023-01-26T16:53:30.138Z,100085.77
2023-01-26T16:55:56.739Z,100086.61
2023-01-26T16:58:25.860Z,100090.61
2023-01-26T17:00:53.913Z,100097.90
2023-01-26T17:03:20.685Z,100095.10
2023-01-26T17:05:51.755Z,100088.79
2023-01-26T17:08:19.804Z,100096.92
2023-01-26T17:11:01.166Z,100093.83
2023-01-26T17:13:29.366Z,100091.88
2023-01-26T17:15:56.409Z,100091.55
2023-01-26T17:18:23.193Z,100087.47
2023-01-26T17:20:50.155Z,100091.14
2023-01-26T17:23:18.203Z,100088.98
2023-01-26T17:25:45.812Z,100088.45
2023-01-26T17:28:12.640Z,100091.23
2023-01-26T17:30:41.249Z,100093.45
2023-01-26T17:33:07.891Z,100091.73
2023-01-26T17:35:34.854Z,100095.48
2023-01-26T17:38:01.432Z,100098.81
2023-01-26T17:40:28.504Z,100096.83
2023-01-26T17:42:55.186Z,100097.02
2023-01-26T17:45:22.806Z,100097.05
2023-01-26T17:47:49.478Z,100094.80
2023-01-26T17:50:16.708Z,100088.71
2023-01-26T17:52:43.366Z,100079.70
2023-01-26T17:55:10.281Z,100086.45
2023-01-26T17:57:37.378Z,100087.05
2023-01-26T18:00:05.687Z,100084.31
2023-01-26T18:02:38.907Z,100087.34
2023-01-26T18:05:06.551Z,100090.64
2023-01-26T18:07:33.528Z,100082.09
2023-01-26T18:10:00.168Z,100083.30
2023-01-26T18:12:26.912Z,100085.86
2023-01-26T18:14:55.169Z,100081.02
2023-01-26T18:17:22.085Z,100082.46
2023-01-26T18:19:49.088Z,100083.59
2023-01-26T18:22:15.689Z,100080.20
2023-01-26T18:24:42.488Z,100079.71
2023-01-26T18:27:10.458Z,100082.25
2023-01-26T18:29:37.065Z,100083.15
2023-01-26T18:32:03.990Z,100080.06
2023-01-26T18:34:31.103Z,100083.33
2023-01-26T18:36:58.612Z,100084.73
2023-01-26T18:39:25.529Z,100083.27
2023-01-26T18:41:52.797Z,100078.58
2023-01-26T18:44:19.386Z,100079.17
2023-01-26T18:46:46.947Z,100081.05
2023-01-26T18:49:17.547Z,100076.00
2023-01-26T18:51:47.491Z,100074.09
2023-01-26T18:54:18.235Z,100073.62
2023-01-26T18:56:45.437Z,100073.84
2023-01-26T18:59:12.248Z,100072.75
2023-01-26T19:01:39.346Z,100072.91
2023-01-26T19:04:06.703Z,100073.86
2023-01-26T19:06:35.711Z,100074.39
2023-01-26T19:09:06.360Z,100063.20
2023-01-26T19:11:35.287Z,100062.46
2023-01-26T19:14:02.495Z,100066.41
2023-01-26T19:16:29.485Z,100069.04
2023-01-26T19:18:56.399Z,100072.42
2023-01-26T19:21:23.767Z,100071.65
2023-01-26T19:23:51.845Z,100067.73
2023-01-26T19:26:20.274Z,100072.13
2023-01-26T19:28:50.209Z,100077.28
2023-01-26T19:31:18.771Z,100077.42
2023-01-26T19:33:53.297Z,100073.95
2023-01-26T19:36:20.666Z,100070.21
2023-01-26T19:38:47.627Z,100072.48
2023-01-26T19:41:14.798Z,100073.76
2023-01-26T19:43:42.165Z,100072.41
2023-01-26T19:46:11.104Z,100073.02
2023-01-26T19:48:38.285Z,100071.42
2023-01-26T19:51:19.248Z,100071.31
2023-01-26T19:53:47.546Z,100069.66
2023-01-26T19:56:16.511Z,100071.27
2023-01-26T19:58:43.856Z,100071.30
2023-01-26T20:01:11.449Z,100064.46
2023-01-26T20:03:38.944Z,100057.69
2023-01-26T20:06:06.521Z,100058.89
2023-01-26T20:08:34.109Z,100057.38
2023-01-26T20:11:07.881Z,100049.64
2023-01-26T20:13:34.845Z,100048.75
2023-01-26T20:16:02.074Z,100042.54
2023-01-26T20:18:29.062Z,100036.56
2023-01-26T20:20:56.305Z,100039.00
2023-01-26T20:23:23.356Z,100043.21
2023-01-26T20:25:53.715Z,100042.27
2023-01-26T20:28:20.368Z,100041.05
2023-01-26T20:30:46.971Z,100038.01
2023-01-26T20:33:13.623Z,100034.27
2023-01-26T20:35:42.106Z,100035.36
2023-01-26T20:38:08.725Z,100036.39
2023-01-26T20:40:35.408Z,100039.55
2023-01-26T20:43:02.263Z,100042.61
2023-01-26T20:45:29.211Z,100044.30
2023-01-26T20:47:55.963Z,100043.06
2023-01-26T20:50:24.018Z,100041.82
2023-01-26T20:52:50.636Z,100037.00
2023-01-26T20:55:17.323Z,100038.06
2023-01-26T20:57:46.999Z,100036.88
2023-01-26T21:00:14.476Z,100035.09
2023-01-26T21:02:42.177Z,100037.77
2023-01-26T21:05:09.203Z,100034.30
2023-01-26T21:07:36.846Z,100035.26
2023-01-26T21:10:04.279Z,100033.68
2023-01-26T21:12:33.446Z,100030.07
2023-01-26T21:15:00.093Z,100025.95
2023-01-26T21:17:26.841Z,100021.34
2023-01-26T21:19:53.589Z,100025.00
2023-01-26T21:22:20.390Z,100022.44
2023-01-26T21:24:47.896Z,100019.63
2023-01-26T21:27:14.527Z,100018.39
2023-01-26T21:29:41.722Z,100015.91
2023-01-26T21:32:08.429Z,100008.21
2023-01-26T21:34:35.061Z,100008.30
2023-01-26T21:37:01.916Z,100001.84
2023-01-26T21:39:29.149Z,100005.88
2023-01-26T21:41:56.196Z,99999.95
2023-01-26T21:44:29.828Z,100005.77
2023-01-26T21:46:58.750Z,100002.83
2023-01-26T21:49:25.698Z,100001.16
2023-01-26T21:52:11.209Z,99993.56
2023-01-26T21:54:38.419Z,99994.28
2023-01-26T21:57:25.898Z,100001.02
2023-01-26T21:59:57.056Z,99998.17
2023-01-26T22:02:23.812Z,100000.42
2023-01-26T22:04:50.636Z,99999.44
2023-01-26T22:07:17.355Z,99999.07
2023-01-26T22:09:44.404Z,99997.33
2023-01-26T22:12:11.550Z,99997.11
2023-01-26T22:14:38.380Z,99994.77
2023-01-26T22:17:06.940Z,100000.50
2023-01-26T22:19:34.268Z,99998.64
2023-01-26T22:22:01.668Z,99994.84
2023-01-26T22:24:28.451Z,99988.40
2023-01-26T22:26:55.078Z,99987.66
2023-01-26T22:29:23.642Z,99984.27
2023-01-26T22:31:50.367Z,99982.83
2023-01-26T22:34:17.072Z,99980.70
2023-01-26T22:36:43.736Z,99979.24
2023-01-26T22:39:11.601Z,99978.48
2023-01-26T22:41:38.219Z,99974.17
2023-01-26T22:44:06.406Z,99972.05
2023-01-26T22:46:34.349Z,99966.88
2023-01-26T22:49:02.596Z,99968.58
2023-01-26T22:51:31.157Z,99965.43
2023-01-26T22:53:58.207Z,99965.71
2023-01-26T22:56:25.841Z,99962.49
2023-01-26T22:58:58.529Z,99961.52
2023-01-26T23:01:28.117Z,99962.38
2023-01-26T23:03:55.469Z,99962.58
2023-01-26T23:06:22.300Z,99964.52
2023-01-26T23:08:49.174Z,99965.73
2023-01-26T23:11:25.829Z,99966.46
2023-01-26T23:13:53.338Z,99961.31
2023-01-26T23:16:23.601Z,99959.24
2023-01-26T23:18:51.561Z,99958.97
2023-01-26T23:21:18.577Z,99955.50
2023-01-26T23:23:45.170Z,99949.64
2023-01-26T23:26:12.353Z,99947.29
2023-01-26T23:28:40.415Z,99948.61
2023-01-26T23:31:08.054Z,99952.01
2023-01-26T23:33:35.110Z,99950.75
2023-01-26T23:36:02.022Z,99952.53
2023-01-26T23:38:29.946Z,99952.19
2023-01-26T23:40:56.725Z,99950.88
2023-01-26T23:43:23.787Z,99947.71
2023-01-26T23:45:50.841Z,99944.91
2023-01-26T23:48:18.269Z,99942.41
2023-01-26T23:50:45.034Z,99941.45
2023-01-26T23:53:12.484Z,99947.91
2023-01-26T23:55:41.114Z,99948.06
2023-01-26T23:58:08.185Z,99949.24
